Date,TemperatureHighF,TemperatureAvgF,TemperatureLowF,DewpointHighF,DewpointAvgF,DewpointLowF,HumidityHigh,HumidityAvg,HumidityLow,PressureMaxIn,PressureMinIn,WindSpeedMaxMPH,WindSpeedAvgMPH,GustSpeedMaxMPH,PrecipitationSumIn
2014-1-1,43.3,31.4,24.8,29.0,15.0,-99.9,92,66,48,30.32,30.14,12,-81,15,0.00
2014-1-2,39.2,27.7,25.4,32.0,10.7,-99.9,92,72,64,30.30,29.76,10,-125,13,0.00
2014-1-3,47.4,38.1,31.1,38.0,26.5,20.0,84,64,44,29.94,29.60,18,7,25,0.02
2014-1-4,31.7,25.5,27.5,26.0,2.1,-99.9,88,56,42,30.24,29.94,12,-133,25,0.00
2014-1-5,29.8,14.2,12.2,19.0,-30.8,-99.9,71,36,47,30.59,30.24,16,-360,22,0.00
2014-1-6,23.7,6.6,13.0,12.0,-59.8,-99.9,81,26,56,30.59,30.26,3,-634,8,0.00
2014-1-7,24.7,5.5,16.6,20.0,-69.1,-99.9,88,22,77,30.26,30.10,2,-733,4,0.00
2014-1-8,34.3,13.1,27.4,26.0,-46.7,-99.9,90,34,68,30.09,29.73,3,-575,7,0.00
2014-1-9,38.8,35.1,27.6,34.0,29.2,23.0,95,80,54,29.83,29.64,13,5,21,0.12
2014-1-10,39.8,34.9,30.8,34.0,30.6,23.0,95,84,65,29.89,29.65,11,3,24,0.01
2014-1-11,42.7,39.8,33.9,40.0,34.6,28.0,90,82,61,29.84,29.32,26,8,45,0.31
2014-1-12,38.1,35.8,33.8,30.0,27.6,26.0,79,72,66,29.94,29.90,7,1,8,0.07
2014-1-13,48.2,44.0,38.1,33.0,30.8,28.0,74,60,46,30.28,29.91,19,8,37,0.01
2014-1-14,48.7,41.5,29.8,33.0,30.4,27.0,90,66,51,30.47,30.27,15,5,36,0.00
2014-1-15,49.9,36.4,27.3,30.0,23.8,-99.9,91,67,38,30.40,30.29,13,-18,20,0.00
2014-1-16,46.5,29.5,25.6,28.0,10.7,-99.9,92,66,42,30.46,30.36,4,-116,7,0.00
2014-1-17,44.2,20.0,19.5,28.0,-26.0,-99.9,92,43,49,30.36,30.22,3,-410,7,0.00
2014-1-18,43.3,20.1,24.0,28.0,-23.3,-99.9,92,46,47,30.33,30.12,4,-385,5,0.00
2014-1-19,46.3,22.2,28.9,30.0,-29.8,-99.9,86,33,44,30.17,30.02,11,-446,16,0.01
2014-1-20,44.0,34.1,25.2,29.0,22.9,-99.9,90,69,54,30.43,30.18,7,-24,12,0.00
2014-1-21,42.2,22.9,19.7,28.0,-4.8,-99.9,94,62,55,30.41,30.25,3,-234,5,0.00
2014-1-22,37.8,27.4,25.3,32.0,12.3,-99.9,94,77,79,30.37,30.17,11,-120,16,0.00
2014-1-23,43.7,30.7,24.6,31.0,19.5,-99.9,95,77,54,30.50,30.37,6,-63,8,0.00
2014-1-24,42.3,21.6,20.9,30.0,-10.1,-99.9,94,59,53,30.54,30.40,4,-281,5,0.00
2014-1-25,35.1,14.0,18.4,29.0,-35.9,-99.9,95,46,76,30.45,30.19,3,-484,5,0.00
2014-1-26,34.3,13.9,20.1,29.0,-44.6,-99.9,94,33,59,30.21,30.15,6,-551,10,0.00
2014-1-27,36.5,22.4,23.8,20.0,-15.9,-99.9,73,37,30,30.33,30.20,11,-247,14,0.00
2014-1-28,32.2,17.7,10.3,20.0,-22.7,-99.9,89,42,43,30.34,30.08,4,-322,8,0.00
2014-1-29,40.3,28.2,25.9,35.0,13.2,-99.9,94,76,67,30.08,29.53,15,-115,20,0.22
2014-1-30,35.8,18.7,18.3,33.0,-13.4,-99.9,96,63,76,29.85,29.55,19,-302,23,0.10
2014-1-31,26.7,11.6,17.3,22.0,-37.6,-99.9,92,47,80,29.98,29.84,6,-478,9,0.01
2014-2-1,25.7,8.1,17.2,17.0,-59.9,-99.9,80,25,65,30.14,29.98,6,-651,8,0.02
2014-2-2,25.7,7.7,21.6,18.0,-62.0,-99.9,84,25,72,30.09,29.83,4,-676,6,0.00
2014-2-3,20.3,9.8,12.0,18.0,-38.3,-99.9,92,40,55,30.24,29.81,20,-431,35,0.00
2014-2-4,8.5,2.8,-2.7,-2.0,-46.8,-99.9,72,33,47,30.61,30.25,15,-420,24,0.00
2014-2-5,4.3,0.0,-5.8,-11.0,-59.1,-99.9,73,24,39,30.78,30.62,17,-518,22,0.00
2014-2-6,2.1,-2.0,-14.9,-13.0,-65.6,-99.9,82,25,48,30.63,30.15,5,-595,7,0.00
2014-2-7,10.5,1.4,-8.8,2.0,-65.5,-99.9,83,26,66,30.15,29.99,5,-645,8,0.00
2014-2-8,18.1,6.9,10.5,11.0,-46.3,-99.9,85,39,70,30.22,29.94,15,-502,19,0.00
2014-2-9,18.8,6.1,12.5,14.0,-54.7,-99.9,90,35,77,30.21,30.02,6,-592,10,0.00
2014-2-10,26.8,10.5,15.1,21.0,-48.0,-99.9,91,35,74,30.27,30.01,6,-561,8,0.00
2014-2-11,44.1,34.9,25.3,34.0,24.8,17.0,96,70,37,30.07,29.87,16,4,24,0.03
2014-2-12,48.5,39.0,27.1,37.0,29.6,20.0,87,71,39,29.97,29.57,18,7,35,0.04
2014-2-13,45.1,38.3,31.1,36.0,29.7,24.0,91,72,43,29.98,29.57,15,6,25,0.08
2014-2-14,44.3,34.3,26.8,35.0,29.6,24.0,92,83,57,29.98,29.69,19,5,29,0.08
2014-2-15,40.4,29.0,27.6,35.0,8.2,-99.9,96,71,69,29.94,29.51,17,-173,24,0.24
2014-2-16,44.1,36.8,32.3,38.0,27.5,21.0,96,70,53,29.96,29.45,19,8,35,0.05
2014-2-17,46.4,39.0,34.1,33.0,26.7,20.0,91,63,46,29.91,29.55,30,10,31,0.09
2014-2-18,44.2,36.6,30.6,35.0,29.4,23.0,87,76,61,29.93,29.49,25,5,26,0.08
2014-2-19,40.6,32.7,26.8,34.0,22.5,14.0,87,67,44,29.98,29.52,15,5,27,0.11
2014-2-20,36.6,18.5,25.8,30.0,-25.7,-99.9,94,49,71,30.06,29.80,9,-414,18,0.00
2014-2-21,32.5,28.8,25.5,29.0,21.0,-99.9,95,80,62,30.01,29.84,19,-26,27,0.14
2014-2-22,25.4,12.4,15.3,22.0,-33.3,-99.9,93,48,70,30.07,30.00,5,-437,10,0.01
2014-2-23,22.1,5.6,20.8,19.0,-70.2,-99.9,91,22,86,30.07,29.97,9,-727,13,0.00
2014-2-24,19.9,5.1,18.2,17.0,-69.7,-99.9,89,22,77,30.29,29.99,11,-735,15,0.00
2014-2-25,26.9,13.6,7.8,17.0,-24.8,-99.9,88,50,65,30.45,30.23,15,-340,18,0.01
2014-2-26,22.9,8.2,11.0,16.0,-46.7,-99.9,90,38,72,30.33,30.01,5,-525,7,0.00
2014-2-27,23.9,8.4,14.8,21.0,-54.1,-99.9,90,33,81,30.01,29.70,2,-610,4,0.00
2014-2-28,22.6,6.2,6.8,20.0,-61.0,-99.9,89,27,60,30.05,29.70,19,-634,40,0.00
2014-3-1,9.2,3.1,2.4,1.0,-45.0,-99.9,80,37,49,30.17,30.07,20,-419,32,0.00
2014-3-2,16.7,6.5,5.9,13.0,-33.1,-99.9,89,49,66,30.18,29.96,6,-357,9,0.00
2014-3-3,42.0,22.7,16.6,37.0,-14.4,-99.9,94,56,74,30.00,29.75,19,-331,24,0.51
2014-3-4,44.1,38.9,32.1,35.0,33.2,31.0,96,81,63,29.93,29.79,14,4,18,0.03
2014-3-5,45.8,40.3,34.9,39.0,35.3,33.0,95,83,69,29.92,29.60,25,7,32,0.06
2014-3-6,46.6,41.2,36.4,40.0,36.8,34.0,95,85,65,29.85,29.50,18,5,26,0.28
2014-3-7,49.3,40.3,32.1,37.0,33.9,29.0,96,79,54,30.22,29.85,9,2,17,0.00
2014-3-8,52.2,31.3,26.1,36.0,1.0,-99.9,95,55,44,30.22,29.91,6,-228,11,0.00
2014-3-9,56.7,48.4,37.5,43.0,40.0,32.0,93,73,54,29.92,29.76,21,8,25,0.07
2014-3-10,45.2,41.0,37.5,41.0,37.5,32.0,96,88,61,29.98,29.69,22,4,24,0.21
2014-3-11,48.7,41.2,35.5,33.0,29.1,23.0,81,64,37,30.36,29.99,14,6,24,0.00
2014-3-12,52.8,37.1,27.1,30.0,25.5,22.0,92,67,31,30.40,30.06,7,1,10,0.00
2014-3-13,56.2,35.9,25.0,32.0,10.8,-99.9,93,54,30,30.06,29.90,11,-121,17,0.00
2014-3-14,49.7,36.8,27.2,36.0,28.9,25.0,90,74,52,30.05,29.81,15,2,25,0.05
2014-3-15,49.6,41.9,30.7,31.0,26.6,22.0,85,56,34,30.30,30.05,18,4,27,0.00
2014-3-16,63.1,43.1,25.5,35.0,22.4,10.0,93,57,13,30.23,29.60,13,4,30,0.00
2014-3-17,48.1,42.3,35.1,35.0,26.0,21.0,75,54,38,29.94,29.37,21,8,33,0.00
2014-3-18,41.5,34.0,28.0,29.0,23.2,17.0,92,67,42,30.15,29.95,17,4,24,0.00
2014-3-19,50.9,29.6,24.7,33.0,-5.3,-99.9,79,43,32,30.14,29.83,12,-222,16,0.00
2014-3-20,42.0,36.1,30.8,34.0,20.8,13.0,88,56,31,30.16,29.79,17,6,39,0.02
2014-3-21,40.1,29.4,24.5,24.0,5.0,-99.9,82,51,33,30.21,30.11,11,-113,15,0.00
2014-3-22,44.0,32.3,23.5,25.0,18.2,-99.9,82,60,34,30.31,30.08,10,-7,13,0.00
2014-3-23,49.1,37.6,30.3,33.0,24.5,15.0,94,63,28,30.16,30.05,11,2,17,0.01
2014-3-24,52.6,37.6,22.0,24.0,20.0,14.0,89,54,23,30.27,30.04,10,2,13,0.00
2014-3-25,58.7,41.1,25.6,28.0,24.1,16.0,91,57,19,30.04,29.46,9,2,18,0.00
2014-3-26,51.1,44.3,37.1,35.0,31.0,25.0,83,61,36,29.49,29.38,13,4,17,0.00
2014-3-27,46.3,36.9,31.8,37.0,31.9,27.0,94,82,66,29.77,29.43,9,2,16,0.10
2014-3-28,53.0,43.1,34.2,39.0,32.8,25.0,95,71,35,29.91,29.72,16,5,23,0.07
2014-3-29,47.6,42.3,35.9,40.0,36.3,32.0,95,80,55,29.73,29.63,19,5,23,0.33
2014-3-30,48.3,39.6,33.0,35.0,31.4,27.0,93,74,46,29.88,29.69,15,4,22,0.00
2014-3-31,50.0,39.1,30.9,34.0,28.8,20.0,96,71,33,29.93,29.73,10,2,15,0.01
2014-4-1,54.1,36.5,26.1,32.0,12.0,-99.9,94,55,32,29.73,29.56,11,-122,19,0.00
2014-4-2,49.5,41.1,32.8,31.0,27.5,23.0,78,60,36,29.87,29.61,14,5,20,0.00
2014-4-3,56.7,39.4,27.6,30.0,18.7,-99.9,92,55,19,29.98,29.81,10,-43,21,0.00
2014-4-4,52.2,41.1,31.4,35.0,29.0,25.0,84,64,38,29.82,29.67,22,3,30,0.00
2014-4-5,51.0,42.2,33.3,34.0,30.4,23.0,91,66,36,29.89,29.80,13,3,19,0.00
2014-4-6,53.6,45.6,38.4,38.0,33.0,26.0,91,64,36,30.08,29.84,21,5,28,0.03
2014-4-7,63.1,46.3,34.2,38.0,28.0,-99.9,88,59,33,30.18,30.06,12,-28,16,0.00
2014-4-8,72.3,51.3,30.6,40.0,33.7,28.0,96,59,20,30.09,29.78,10,2,17,0.00
2014-4-9,57.2,51.5,41.5,42.0,32.6,23.0,76,50,32,29.89,29.70,23,7,38,0.00
2014-4-10,61.1,47.6,32.9,30.0,24.6,19.0,79,45,21,29.97,29.88,17,4,20,0.00
2014-4-11,63.4,47.3,29.0,31.0,28.4,26.0,88,52,27,29.91,29.67,12,3,23,0.00
2014-4-12,54.0,41.5,32.0,36.0,29.0,19.0,87,63,30,30.05,29.69,21,5,35,0.01
2014-4-13,46.8,35.8,23.9,19.0,13.8,5.0,72,44,18,30.31,30.06,13,5,20,0.00
2014-4-14,63.9,37.2,20.9,23.0,-6.7,-99.9,82,29,10,30.31,29.82,9,-177,13,0.00
2014-4-15,50.3,45.2,38.4,32.0,26.9,22.0,64,50,36,29.85,29.67,23,7,29,0.00
2014-4-16,50.8,42.9,30.1,33.0,29.0,25.0,93,61,39,29.93,29.85,11,3,18,0.00
2014-4-17,58.5,48.2,39.1,43.0,35.7,30.0,89,64,43,29.89,29.58,12,3,18,0.00
2014-4-18,51.7,46.0,39.1,43.0,28.9,16.0,93,57,26,29.90,29.60,17,6,35,0.03
2014-4-19,69.0,42.9,24.7,35.0,5.9,-99.9,86,37,14,29.94,29.67,15,-132,32,0.00
2014-4-20,60.1,50.7,44.4,35.0,23.6,13.0,66,37,16,30.09,29.87,19,8,29,0.00
2014-4-21,71.7,51.4,28.7,30.0,25.9,20.0,89,45,15,30.14,29.67,15,3,20,0.00
2014-4-22,57.0,47.7,39.2,42.0,33.4,24.0,77,59,34,29.66,29.44,21,6,26,0.02
2014-4-23,51.5,42.1,36.8,36.0,29.3,23.0,85,62,33,29.80,29.61,23,5,27,0.00
2014-4-24,55.0,43.4,34.6,43.0,37.3,33.0,95,80,50,29.81,29.71,12,3,20,0.06
2014-4-25,59.6,46.9,33.7,42.0,35.6,31.0,93,68,37,29.77,29.46,15,3,21,0.00
2014-4-26,49.3,44.8,41.1,42.0,35.5,28.0,93,71,48,29.60,29.41,16,8,27,0.06
2014-4-27,50.4,41.6,29.6,34.0,28.9,23.0,91,63,35,29.83,29.60,16,4,24,0.01
2014-4-28,50.6,42.3,34.0,34.0,27.8,23.0,92,60,36,30.35,29.83,16,5,24,0.01
2014-4-29,60.8,45.0,26.4,29.0,24.6,15.0,91,51,17,30.57,30.36,13,4,16,0.00
2014-4-30,69.7,49.6,27.2,32.0,26.8,20.0,91,49,17,30.52,30.20,12,3,16,0.00
2014-5-1,78.2,56.1,32.4,37.0,31.1,-99.9,94,47,19,30.20,29.85,10,-9,11,0.00
2014-5-2,76.2,60.2,39.6,39.0,34.8,28.0,85,44,19,29.86,29.62,14,3,19,0.00
2014-5-3,66.5,56.2,48.0,46.0,40.9,37.0,86,59,34,29.63,29.50,18,5,28,0.00
2014-5-4,58.5,50.4,44.3,45.0,39.2,32.0,95,68,37,29.70,29.57,16,5,27,0.14
2014-5-5,56.8,49.5,42.4,41.0,36.1,31.0,86,62,38,29.75,29.68,16,5,28,0.00
2014-5-6,56.2,46.7,35.7,41.0,34.9,30.0,91,66,40,29.76,29.65,15,6,23,0.01
2014-5-7,55.1,46.1,37.8,37.0,31.5,28.0,82,59,40,29.82,29.73,14,6,20,0.00
2014-5-8,64.7,50.1,32.1,36.0,30.7,23.0,94,54,21,29.82,29.54,11,2,16,0.00
2014-5-9,57.2,49.5,43.3,44.0,34.9,29.0,89,59,38,29.74,29.50,16,4,27,0.01
2014-5-10,54.2,47.1,41.1,38.0,35.0,31.0,86,64,46,29.97,29.74,12,5,18,0.04
2014-5-11,47.1,41.6,33.7,39.0,35.9,32.0,94,81,60,30.30,29.97,16,6,19,0.18
2014-5-12,59.5,44.3,30.3,33.0,27.2,19.0,91,58,21,30.43,30.30,10,3,15,0.01
2014-5-13,66.6,48.8,28.6,34.0,27.8,11.0,96,53,12,30.42,30.22,12,2,16,0.00
2014-5-14,73.8,53.9,32.4,40.0,34.4,30.0,95,54,24,30.31,30.05,8,1,10,0.00
2014-5-15,79.8,60.5,39.8,42.0,37.9,27.0,92,50,16,30.09,29.81,11,3,15,0.00
2014-5-16,71.7,61.2,48.0,48.0,43.4,38.0,77,54,35,29.87,29.68,16,4,23,0.03
2014-5-17,74.8,60.3,42.6,48.0,40.8,31.0,96,56,25,29.77,29.54,11,3,17,0.00
2014-5-18,58.8,52.0,45.3,44.0,39.0,34.0,79,62,40,29.67,29.52,19,7,28,0.00
2014-5-19,62.6,53.5,45.3,43.0,39.0,34.0,90,61,37,29.82,29.68,14,5,19,0.00
2014-5-20,70.4,55.1,36.5,41.0,35.7,28.0,93,54,21,29.92,29.77,11,4,19,0.00
2014-5-21,77.1,61.2,40.4,41.0,36.3,31.0,85,44,19,29.91,29.73,12,4,14,0.00
2014-5-22,82.2,62.9,42.2,44.0,40.1,32.0,91,50,17,29.92,29.75,9,2,15,0.00
2014-5-23,85.0,64.1,42.4,46.0,40.2,31.0,94,50,14,29.87,29.61,15,3,23,0.00
2014-5-24,68.1,62.2,56.6,53.0,47.2,43.0,85,59,46,29.82,29.72,15,5,23,0.00
2014-5-25,76.4,60.6,42.7,46.0,42.3,35.0,95,57,23,29.91,29.67,8,2,22,0.00
2014-5-26,66.7,60.4,54.7,49.0,43.4,40.0,72,54,41,29.86,29.70,19,7,23,0.00
2014-5-27,75.5,59.2,43.1,46.0,42.2,39.0,84,56,29,29.94,29.68,17,5,22,0.00
2014-5-28,67.3,57.5,49.8,50.0,44.0,32.0,76,62,44,29.88,29.61,22,8,31,0.00
2014-5-29,65.8,53.6,40.6,38.0,32.0,27.0,81,48,24,30.02,29.89,11,3,12,0.00
2014-5-30,75.6,57.1,37.8,44.0,33.0,22.0,86,45,14,30.04,29.74,11,2,14,0.00
2014-5-31,76.2,64.2,52.3,49.0,39.9,32.0,88,43,24,29.80,29.61,19,5,27,0.09
2014-6-1,72.9,59.3,46.3,50.0,45.1,38.0,97,64,29,29.83,29.75,16,3,25,0.01
2014-6-2,78.6,61.5,42.5,46.0,40.4,33.0,95,54,20,29.84,29.60,10,1,11,0.00
2014-6-3,72.6,61.9,51.9,52.0,44.8,39.0,78,55,33,29.75,29.56,28,6,35,0.02
2014-6-4,75.8,61.1,45.6,47.0,42.1,35.0,92,56,23,29.83,29.70,11,2,24,0.00
2014-6-5,73.8,60.7,43.5,44.0,37.1,30.0,90,48,21,29.79,29.71,14,3,21,0.00
2014-6-6,71.7,59.6,45.2,39.0,31.7,22.0,64,38,18,29.86,29.77,17,5,19,0.00
2014-6-7,72.3,58.2,40.1,40.0,32.9,-99.9,91,44,21,29.92,29.82,9,-8,11,0.00
2014-6-8,76.5,63.2,48.4,48.0,38.6,35.0,65,43,23,29.95,29.77,8,3,14,0.00
2014-6-9,75.1,62.1,44.2,46.0,40.6,33.0,91,50,23,29.78,29.66,13,4,21,0.00
2014-6-10,72.5,60.3,41.5,43.0,36.5,24.0,87,46,17,29.77,29.61,17,4,19,0.00
2014-6-11,74.9,60.2,42.2,41.0,37.3,31.0,90,47,20,29.84,29.71,9,2,17,0.00
2014-6-12,80.2,62.4,45.1,52.0,43.0,36.0,85,52,27,29.74,29.37,16,4,22,0.02
2014-6-13,61.9,55.8,50.2,52.0,42.9,35.0,91,64,43,29.74,29.49,18,8,29,0.09
2014-6-14,58.2,52.1,46.1,43.0,40.4,38.0,83,65,50,29.80,29.73,17,4,19,0.00
2014-6-15,67.8,55.8,42.3,44.0,41.0,38.0,91,60,37,29.79,29.52,13,4,17,0.00
2014-6-16,55.2,50.6,45.5,48.0,45.0,41.0,91,81,65,29.66,29.52,12,4,17,0.14
2014-6-17,53.7,46.3,41.7,44.0,40.6,38.0,94,81,62,29.85,29.65,13,6,19,0.42
2014-6-18,52.8,40.9,39.5,46.0,26.9,-99.9,96,77,59,29.88,29.79,10,-103,17,0.12
2014-6-19,75.6,60.4,46.0,52.0,45.5,39.0,96,64,28,29.87,29.75,10,3,20,0.02
2014-6-20,78.1,63.0,47.6,55.0,47.8,43.0,94,61,35,29.81,29.63,12,3,22,0.04
2014-6-21,76.7,63.3,49.9,46.0,38.3,-99.9,75,44,23,29.82,29.68,13,-16,23,0.00
2014-6-22,78.5,62.0,49.9,49.0,42.2,-99.9,77,52,25,29.84,29.72,23,-6,31,0.00
2014-6-23,82.9,63.1,45.2,54.0,45.3,-99.9,95,60,18,29.90,29.72,4,-10,8,0.00
2014-6-24,80.6,66.6,49.9,53.0,49.6,46.0,94,58,36,29.77,29.62,15,3,16,0.00
2014-6-25,78.0,66.8,56.8,55.0,48.0,43.0,83,53,31,29.74,29.53,10,4,15,0.00
2014-6-26,68.4,60.7,56.1,59.0,55.4,53.0,96,83,65,29.59,29.48,15,3,24,0.23
2014-6-27,67.4,60.6,55.0,56.0,51.9,47.0,94,75,50,29.62,29.56,17,3,23,0.01
2014-6-28,66.0,59.0,52.8,51.0,46.4,40.0,90,65,42,29.77,29.62,16,4,19,0.00
2014-6-29,66.6,57.1,46.5,48.0,44.3,38.0,93,65,37,29.95,29.77,13,4,24,0.00
2014-6-30,77.1,61.0,42.9,50.0,43.7,41.0,94,58,28,30.04,29.95,8,2,11,0.00
2014-7-1,85.9,66.4,45.0,51.0,45.8,38.0,94,53,20,30.00,29.73,9,2,11,0.00
2014-7-2,85.9,46.3,48.8,51.0,6.5,-99.9,94,44,26,29.78,29.61,9,-280,15,0.00
2014-7-3,85.3,52.4,57.8,57.0,8.3,-99.9,83,34,23,29.72,29.55,13,-277,17,0.00
2014-7-4,87.9,72.8,55.0,56.0,49.2,40.0,85,47,23,29.75,29.61,12,3,19,0.00
2014-7-5,87.1,67.7,57.3,52.0,35.4,-99.9,81,39,19,29.83,29.66,18,-59,18,0.00
2014-7-6,87.8,49.5,52.6,49.0,5.6,-99.9,84,35,23,29.90,29.72,9,-272,13,0.00
2014-7-7,85.0,53.1,53.1,53.0,13.0,-99.9,86,38,27,29.89,29.74,10,-238,13,0.00
2014-7-8,84.1,38.0,57.8,57.0,-15.9,-99.9,80,31,37,29.82,29.63,11,-445,18,0.00
2014-7-9,89.0,65.2,54.7,59.0,39.8,-99.9,91,51,27,29.76,29.57,10,-84,14,0.00
2014-7-10,92.4,58.8,53.9,56.0,39.1,32.0,92,40,12,29.67,29.52,12,2,20,0.00
2014-7-11,88.7,65.3,54.5,56.0,40.4,34.0,67,34,25,29.78,29.62,11,4,18,0.00
2014-7-12,90.6,55.0,58.8,53.0,36.7,43.0,63,35,23,29.92,29.79,10,3,14,0.00
2014-7-13,82.2,39.0,54.3,52.0,28.4,44.0,87,32,31,29.95,29.82,8,1,11,0.00
2014-7-14,89.1,65.2,62.8,61.0,47.8,46.0,76,47,30,29.91,29.70,18,3,25,0.05
2014-7-15,81.9,62.9,58.4,66.0,56.2,57.0,96,74,44,29.83,29.73,10,1,17,0.00
2014-7-16,87.1,70.0,54.1,66.0,58.1,53.0,98,70,36,29.86,29.64,8,1,11,0.04
2014-7-17,93.3,62.4,56.3,60.0,45.9,37.0,94,51,14,29.68,29.47,9,2,14,0.00
2014-7-18,78.8,64.0,52.4,55.0,47.2,41.0,89,56,31,29.72,29.58,9,2,12,0.00
2014-7-19,83.7,68.1,50.0,53.0,48.9,43.0,88,54,30,29.75,29.60,18,3,25,0.00
2014-7-20,85.5,68.7,56.0,57.0,50.4,42.0,86,54,23,29.63,29.48,18,4,26,0.00
2014-7-21,82.7,70.6,59.6,60.0,48.2,27.0,91,52,15,29.80,29.54,18,6,24,0.02
2014-7-22,85.4,61.1,55.8,54.0,40.2,36.0,70,39,28,29.91,29.78,12,4,19,0.00
2014-7-23,89.2,72.6,60.1,69.0,55.3,47.0,91,58,28,29.96,29.54,22,5,27,0.11
2014-7-24,72.3,63.1,56.5,54.0,41.0,34.0,62,44,26,29.88,29.61,25,10,32,0.00
2014-7-25,78.9,63.0,43.1,44.0,40.5,37.0,88,48,24,29.93,29.79,11,4,17,0.00
2014-7-26,84.7,67.2,44.5,54.0,42.4,38.0,87,45,20,29.99,29.86,9,2,13,0.00
2014-7-27,91.1,53.7,45.0,46.0,34.9,38.0,91,41,16,30.03,29.83,11,2,13,0.00
2014-7-28,91.6,50.1,53.3,52.0,34.0,42.0,83,36,19,29.96,29.79,12,2,16,0.00
2014-7-29,95.8,57.1,54.4,53.0,36.9,27.0,84,37,10,29.92,29.73,12,2,18,0.00
2014-7-30,90.9,45.2,52.6,54.0,32.0,41.0,86,36,19,29.88,29.79,5,1,12,0.00
2014-7-31,93.8,58.7,52.5,52.0,40.3,38.0,87,43,14,29.94,29.75,8,1,11,0.00
2014-8-1,95.2,68.2,53.1,52.0,44.7,39.0,88,43,16,29.88,29.72,14,2,25,0.00
2014-8-2,87.4,71.6,54.9,60.0,52.2,48.0,83,53,27,29.85,29.70,7,1,14,0.00
2014-8-3,86.2,60.7,62.3,56.0,42.8,42.0,77,42,25,29.86,29.70,10,3,18,0.00
2014-8-4,88.6,72.8,56.7,58.0,50.4,45.0,75,47,28,29.80,29.62,20,4,28,0.00
2014-8-5,88.6,42.7,52.1,55.0,34.2,47.0,95,44,24,29.80,29.66,5,1,11,0.00
2014-8-6,89.5,35.4,53.5,53.0,27.1,39.0,89,34,17,29.81,29.64,3,0,6,0.00
2014-8-7,84.8,35.8,51.2,50.0,23.6,38.0,85,26,21,29.82,29.63,12,1,15,0.00
2014-8-8,86.3,68.6,49.6,56.0,47.8,40.0,86,51,25,29.78,29.63,15,4,19,0.03
2014-8-9,86.3,68.9,49.8,56.0,49.5,40.0,95,57,24,29.93,29.79,9,2,10,0.00
2014-8-10,90.5,45.4,46.8,52.0,32.2,40.0,92,41,18,29.99,29.82,6,1,11,0.00
2014-8-11,84.8,40.6,48.8,49.0,29.4,37.0,90,37,23,29.97,29.77,7,0,13,0.00
2014-8-12,80.6,66.5,56.0,57.0,49.8,46.0,82,52,35,29.86,29.67,15,3,26,0.01
2014-8-13,88.6,67.2,54.0,62.0,55.7,47.0,95,71,24,29.82,29.61,39,3,42,0.37
2014-8-14,82.1,67.5,59.3,62.0,57.9,52.0,97,75,37,29.80,29.66,13,3,16,0.06
2014-8-15,73.2,63.7,55.1,60.0,55.7,50.0,95,76,51,29.86,29.75,11,4,18,0.03
2014-8-16,77.5,61.6,53.9,57.0,51.2,51.0,93,67,41,29.90,29.82,10,2,15,0.00
2014-8-17,85.4,66.8,49.8,57.0,51.9,49.0,96,63,31,29.92,29.78,9,2,12,0.00
2014-8-18,87.4,64.3,51.0,61.0,49.2,49.0,95,57,28,29.82,29.57,8,2,12,0.00
2014-8-19,84.9,55.0,49.5,54.0,41.7,43.0,96,53,27,29.61,29.43,22,2,34,0.00
2014-8-20,74.3,63.4,53.2,58.0,53.5,48.0,94,72,45,29.67,29.53,13,4,15,0.07
2014-8-21,74.7,62.9,53.1,55.0,52.8,48.0,94,72,39,29.80,29.67,13,4,20,0.05
2014-8-22,67.9,59.2,53.7,56.0,51.6,49.0,92,77,54,29.89,29.76,14,5,21,0.29
2014-8-23,58.3,54.7,52.4,53.0,49.9,47.0,95,84,69,29.99,29.88,10,3,14,0.09
2014-8-24,67.2,60.4,53.8,52.0,45.7,42.0,91,60,44,29.96,29.84,11,2,14,0.00
2014-8-25,74.3,59.2,46.0,51.0,44.5,42.0,88,61,34,29.93,29.76,9,1,10,0.00
2014-8-26,81.0,60.9,43.6,55.0,47.4,42.0,97,67,29,29.98,29.82,8,1,9,0.00
2014-8-27,85.0,63.7,44.7,59.0,49.1,44.0,97,65,28,29.97,29.78,6,1,9,0.00
2014-8-28,87.6,67.4,47.5,54.0,46.5,35.0,96,56,15,29.85,29.69,10,2,22,0.00
2014-8-29,86.9,68.6,47.0,49.0,43.6,35.0,91,47,17,29.79,29.52,14,3,16,0.00
2014-8-30,72.7,66.1,57.0,53.0,44.3,37.0,81,47,28,29.63,29.53,16,4,21,0.01
2014-8-31,67.4,59.1,52.7,53.0,46.2,40.0,86,64,38,29.79,29.61,14,4,19,0.01
2014-9-1,72.8,57.9,43.4,46.0,40.9,38.0,91,56,29,29.89,29.76,13,3,13,0.00
2014-9-2,80.6,60.8,39.8,44.0,40.8,36.0,95,55,21,29.80,29.45,9,2,16,0.00
2014-9-3,66.7,56.8,50.5,44.0,38.1,31.0,77,49,35,29.90,29.44,23,7,31,0.00
2014-9-4,68.9,55.0,39.8,44.0,39.7,35.0,91,60,30,30.07,29.91,9,2,12,0.00
2014-9-5,75.9,54.5,36.1,42.0,36.5,33.0,95,53,21,30.15,29.97,9,2,11,0.00
2014-9-6,81.9,57.3,35.0,47.0,37.8,31.0,95,56,16,30.11,29.80,6,1,9,0.00
2014-9-7,86.4,57.2,37.1,43.0,36.5,28.0,94,53,13,29.84,29.61,7,1,13,0.00
2014-9-8,83.6,61.7,37.9,41.0,33.0,8.0,93,46,6,29.69,29.54,11,2,20,0.00
2014-9-9,69.8,58.8,49.1,45.0,39.3,30.0,74,50,27,29.83,29.60,22,5,28,0.00
2014-9-10,63.2,49.1,42.4,44.0,39.9,31.0,88,72,30,30.22,29.83,20,4,28,0.04
2014-9-11,57.8,45.0,33.7,34.0,28.8,24.0,84,57,28,30.36,30.22,9,2,18,0.00
2014-9-12,68.5,42.7,25.1,31.0,24.2,23.0,92,47,21,30.27,29.91,12,2,16,0.00
2014-9-13,68.5,52.3,32.5,35.0,31.1,28.0,86,48,24,30.05,29.81,10,4,19,0.00
2014-9-14,75.0,53.5,31.6,38.0,34.0,30.0,93,55,23,29.97,29.84,8,2,14,0.00
2014-9-15,82.7,54.9,32.6,48.0,36.5,31.0,94,58,17,30.00,29.79,5,1,8,0.00
2014-9-16,75.6,57.2,39.1,52.0,43.0,37.0,93,63,37,29.88,29.68,4,0,6,0.00
2014-9-17,81.9,60.1,44.0,57.0,47.4,42.0,95,65,36,29.75,29.52,5,0,8,0.00
2014-9-18,79.8,64.5,51.3,53.0,47.7,42.0,92,59,31,29.62,29.48,13,3,15,0.00
2014-9-19,71.9,66.0,54.1,48.0,46.3,44.0,74,50,40,29.90,29.62,14,5,22,0.00
2014-9-20,79.8,59.3,40.8,48.0,42.3,36.0,96,58,21,30.08,29.90,9,2,14,0.00
2014-9-21,84.3,55.2,39.1,55.0,40.9,37.0,94,58,22,29.98,29.72,7,1,10,0.00
2014-9-22,85.1,63.7,43.6,50.0,45.0,42.0,93,57,24,29.81,29.68,10,1,16,0.00
2014-9-23,81.0,63.2,48.1,56.0,48.2,44.0,88,61,34,29.83,29.66,7,1,10,0.00
2014-9-24,90.5,59.0,47.4,53.0,41.9,41.0,93,51,19,29.73,29.52,15,2,21,0.00
2014-9-25,84.6,65.2,46.8,49.0,43.8,41.0,88,47,25,29.66,29.44,18,6,24,0.00
2014-9-26,69.4,60.7,53.5,49.0,44.8,39.0,83,58,35,29.84,29.59,17,6,27,0.11
2014-9-27,59.7,54.5,50.0,47.0,43.9,41.0,80,68,55,29.95,29.81,9,3,15,0.00
2014-9-28,60.0,57.2,54.5,47.0,44.2,43.0,74,63,57,29.95,29.79,12,4,21,0.01
2014-9-29,58.9,52.5,43.7,51.0,46.2,41.0,96,80,65,29.78,29.64,11,1,13,0.11
2014-9-30,58.6,52.1,46.6,51.0,43.7,36.0,97,75,44,29.84,29.63,24,5,28,0.08
2014-10-1,56.6,48.2,42.4,43.0,38.5,33.0,93,72,43,29.98,29.83,18,2,22,0.00
2014-10-2,59.6,49.7,38.7,38.0,32.3,25.0,87,56,27,30.24,29.93,13,4,24,0.00
2014-10-3,64.4,43.1,27.4,32.0,28.7,19.0,95,63,18,30.38,30.18,4,0,8,0.00
2014-10-4,73.9,52.7,31.9,42.0,35.6,29.0,92,58,29,30.20,29.96,15,3,16,0.00
2014-10-5,76.1,62.1,48.3,45.0,42.3,40.0,82,51,28,29.96,29.81,12,2,15,0.00
2014-10-6,78.5,58.6,39.6,46.0,42.4,37.0,92,61,31,29.89,29.74,12,3,21,0.00
2014-10-7,79.7,62.0,44.7,48.0,44.2,41.0,91,56,26,29.81,29.67,10,1,14,0.00
2014-10-8,74.6,56.3,39.6,46.0,41.1,38.0,94,62,30,29.82,29.72,10,2,13,0.00
2014-10-9,72.4,57.3,40.3,44.0,39.7,35.0,91,55,34,29.89,29.78,13,4,15,0.00
2014-10-10,71.7,56.6,35.2,44.0,40.5,34.0,96,58,34,29.95,29.79,10,1,10,0.00
2014-10-11,63.8,50.8,42.9,49.0,40.4,38.0,87,69,39,29.85,29.64,21,4,26,0.14
2014-10-12,55.8,48.0,42.0,44.0,39.3,34.0,96,74,44,30.09,29.78,10,2,23,0.16
2014-10-13,67.2,49.8,36.4,41.0,37.2,33.0,95,67,29,30.08,29.77,9,1,15,0.00
2014-10-14,69.3,52.7,35.8,44.0,37.4,33.0,95,62,28,29.76,29.55,15,3,23,0.00
2014-10-15,59.6,48.0,39.4,42.0,38.7,36.0,92,72,48,29.87,29.42,17,3,26,0.04
2014-10-16,59.2,48.3,37.4,42.0,38.4,33.0,92,71,40,30.04,29.88,7,2,12,0.01
2014-10-17,60.0,41.9,27.5,40.0,33.6,26.0,97,75,40,30.02,29.84,6,1,9,0.00
2014-10-18,64.3,50.0,38.7,43.0,40.1,37.0,94,71,44,29.96,29.87,12,2,12,0.00
2014-10-19,67.8,47.5,31.1,44.0,38.8,30.0,97,75,40,29.97,29.76,5,0,8,0.00
2014-10-20,71.4,48.6,30.2,43.0,37.3,29.0,97,70,33,29.81,29.56,9,1,12,0.00
2014-10-21,58.6,48.7,42.5,47.0,42.7,40.0,94,80,54,29.91,29.56,19,5,24,0.38
2014-10-22,62.2,48.3,33.9,41.0,37.2,33.0,97,70,39,29.97,29.76,16,4,21,0.00
2014-10-23,60.8,53.7,47.9,45.0,41.6,35.0,84,65,45,29.82,29.66,20,7,32,0.03
2014-10-24,51.5,47.9,44.5,46.0,42.5,38.0,96,81,66,30.01,29.82,13,2,17,0.05
2014-10-25,52.9,46.6,43.8,46.0,44.0,41.0,97,90,76,29.93,29.52,6,1,14,0.01
2014-10-26,54.1,46.9,41.9,43.0,35.3,29.0,94,65,44,29.84,29.53,16,6,28,0.01
2014-10-27,48.2,41.1,30.3,36.0,32.0,27.0,91,72,46,30.10,29.85,12,3,15,0.00
2014-10-28,52.2,29.0,25.4,39.0,22.5,24.0,95,53,41,30.13,29.98,9,1,12,0.07
2014-10-29,54.0,45.0,39.8,45.0,41.5,38.0,96,87,67,30.16,29.96,7,1,10,0.06
2014-10-30,54.9,43.3,35.9,44.0,39.1,35.0,97,86,61,30.18,29.88,3,0,7,0.00
2014-10-31,58.7,44.6,34.8,45.0,39.4,34.0,98,83,58,29.88,29.62,8,1,12,0.01
2014-11-1,49.1,40.3,31.2,43.0,37.7,30.0,97,90,74,29.63,29.41,22,3,25,0.64
2014-11-2,47.0,40.2,31.2,39.0,32.9,25.0,95,77,45,30.06,29.54,15,4,29,0.40
2014-11-3,46.8,37.6,30.3,37.0,32.2,28.0,93,79,58,30.17,30.06,6,1,9,0.00
2014-11-4,52.1,44.8,38.6,44.0,39.7,36.0,93,83,62,30.15,29.97,9,1,18,0.02
2014-11-5,55.4,47.8,42.0,45.0,42.3,40.0,93,81,59,30.23,30.11,6,1,10,0.00
2014-11-6,67.1,49.8,37.9,47.0,40.1,37.0,97,71,37,30.16,29.78,19,4,22,0.05
2014-11-7,52.7,47.4,32.6,44.0,34.0,30.0,91,60,45,30.27,29.90,20,6,27,0.00
2014-11-8,50.0,30.3,27.0,37.0,26.6,26.0,97,71,57,30.26,30.00,7,1,8,0.00
2014-11-9,58.0,40.3,33.3,44.0,36.8,32.0,96,88,51,30.00,29.49,12,4,22,0.35
2014-11-10,37.1,16.5,17.3,35.0,13.2,2.0,94,55,49,30.37,29.57,19,4,38,0.05
2014-11-11,16.9,8.8,7.1,5.0,-0.8,-7.0,74,39,44,30.71,30.38,22,4,22,0.00
2014-11-12,17.9,5.4,2.3,5.0,0.5,-3.0,87,35,53,30.73,30.54,6,1,8,0.00
2014-11-13,16.7,3.1,-1.8,6.0,0.6,-5.0,88,33,59,30.55,30.20,1,0,6,0.00
2014-11-14,20.9,4.8,17.6,14.0,3.2,12.0,79,19,72,30.28,30.11,11,1,14,0.00
2014-11-15,21.0,8.0,8.5,7.0,2.4,2.0,81,37,48,30.61,30.28,6,0,8,0.00
2014-11-16,27.2,9.7,6.3,13.0,5.0,3.0,87,39,51,30.73,30.61,3,0,4,0.00
2014-11-17,28.1,8.4,3.8,16.0,5.3,1.0,90,35,59,30.63,30.44,4,0,5,0.00
2014-11-18,27.1,10.5,10.8,19.0,8.0,8.0,90,38,70,30.47,30.26,3,0,5,0.00
2014-11-19,32.4,13.2,12.3,24.0,10.2,10.0,92,41,67,30.27,30.07,2,0,4,0.00
2014-11-20,32.3,14.7,19.5,27.0,12.5,17.0,92,44,76,30.08,30.00,3,0,7,0.00
2014-11-21,40.6,29.5,27.4,36.0,26.2,25.0,92,78,75,30.00,29.49,14,1,21,0.03
2014-11-22,45.4,40.4,34.1,38.0,31.4,24.0,90,72,45,29.77,29.39,21,7,33,0.04
2014-11-23,40.6,37.1,33.5,32.0,28.9,25.0,92,73,58,30.07,29.79,16,6,26,0.04
2014-11-24,42.1,38.1,33.6,30.0,24.4,19.0,87,58,42,30.25,29.99,19,6,27,0.00
2014-11-25,39.0,35.2,32.2,35.0,32.5,30.0,97,90,70,30.13,29.90,16,3,18,0.35
2014-11-26,36.8,33.2,31.7,36.0,32.4,31.0,97,96,93,30.17,30.05,7,1,8,0.17
2014-11-27,56.9,43.6,31.8,42.0,36.7,31.0,98,78,52,30.06,29.69,21,4,28,0.05
2014-11-28,52.6,47.6,42.8,41.0,38.6,35.0,85,71,58,29.68,29.19,25,12,38,0.04
2014-11-29,45.9,31.7,21.2,39.0,25.5,14.0,94,68,40,29.87,29.11,20,6,30,0.14
2014-11-30,23.7,8.4,9.0,14.0,5.3,6.0,89,40,63,30.32,29.88,4,0,7,0.00
2014-12-1,19.7,3.4,6.4,13.0,2.3,4.0,89,22,76,30.31,30.10,7,0,9,0.00
2014-12-2,32.5,11.2,15.9,22.0,8.3,13.0,91,34,62,30.26,30.12,6,1,7,0.03
2014-12-3,27.8,10.4,15.7,20.0,8.3,14.0,91,38,72,30.12,29.95,7,1,8,0.00
2014-12-4,29.7,15.8,24.1,27.0,14.3,20.0,93,50,84,30.07,29.89,3,0,3,0.01
2014-12-5,35.4,26.2,28.4,32.0,24.3,27.0,94,77,86,30.20,30.07,3,0,7,0.05
2014-12-6,34.9,20.0,27.0,34.0,19.5,26.0,97,60,95,30.21,30.07,7,1,13,0.07
2014-12-7,34.4,26.1,27.1,34.0,25.6,26.0,98,82,96,30.36,30.22,6,0,7,0.00
2014-12-8,31.4,15.0,28.4,31.0,14.8,28.0,98,49,97,30.28,30.21,5,0,7,0.01
2014-12-9,31.5,18.3,27.4,31.0,18.0,27.0,98,60,97,30.23,30.06,3,0,5,0.00
2014-12-10,54.2,27.1,27.4,38.0,23.7,27.0,99,64,45,30.11,29.63,19,2,25,0.01
2014-12-11,53.4,40.6,33.8,39.0,34.8,32.0,93,81,47,29.68,29.50,19,2,23,0.00
2014-12-12,52.7,39.4,29.9,37.0,33.6,29.0,96,79,47,29.63,29.53,11,2,15,0.00
2014-12-13,45.6,38.8,34.7,37.0,33.0,26.0,96,81,57,30.07,29.62,20,4,24,0.08
2014-12-14,38.3,36.8,34.5,31.0,28.8,28.0,85,73,66,30.10,30.07,10,4,12,0.00